Taylors Island, Maryland
Current Conditions -  °F | °C
As of 7:52 AM on Thursday 23 Oct 2014 (Local Time) from KNHK Reporting Station
Overcast Overcast  
Wind Chill: 12°   Ceiling: 5000
Heat Index: 12°   Visibility: 10mi
Dew Point:   Wind: 16mph
Humidity: 69%   Direction: 300°WNW
Pressure: 29.86"   Gusts: 24mph
Location:  38.47°N, 76.3°W
Report Text: KNHK 231152Z 30014G21KT 10SM SCT041 OVC050 12/06 A2986 RMK AO2 PK WND 30030/1107 SLP110 70064 T01170061 10122 20117 52007
Loading
Personal Weather Stations






























Interactive Weather Map
Tropical Storm Tracking
New forecast layout! Learn more

10-Day Weather Forecast

Advertisements
Track Severe Weather on mobile